Time;durP1;ratioP1;P1;durP2;ratioP2;P2;SDS_P1;SDS_P2;PMS_P1;PMS_P2;Temp;Humidity;BMP_temperature;BMP_pressure;BME280_temperature;BME280_humidity;BME280_pressure;Samples;Min_cycle;Max_cycle;Signal;HPM_P1;HPM_P2
2022/11/27 00:01:13;;;;;;;15.27;6.72;;;;;;;5.20;100.00;67348.53;5026273;28;20042;-84
2022/11/27 00:03:40;;;;;;;13.40;6.40;;;;;;;5.19;100.00;67346.88;5017213;28;20029;-87
2022/11/27 00:06:07;;;;;;;15.38;6.20;;;;;;;5.21;100.00;67349.13;5034138;28;20040;-86
2022/11/27 00:08:32;;;;;;;15.73;7.00;;;;;;;5.19;100.00;67352.69;5025463;28;20045;-83
2022/11/27 00:11:07;;;;;;;13.18;6.72;;;;;;;5.18;100.00;67351.56;5028155;28;20061;-84
2022/11/27 00:13:33;;;;;;;16.63;6.68;;;;;;;5.17;100.00;67350.44;5019744;28;20048;-88
2022/11/27 00:15:58;;;;;;;17.15;5.90;;;;;;;5.16;100.00;67349.31;5033123;28;20101;-84
2022/11/27 00:18:24;;;;;;;15.38;7.35;;;;;;;5.16;100.00;67349.31;5024755;28;20111;-86
2022/11/27 00:20:49;;;;;;;14.18;6.90;;;;;;;5.15;100.00;67347.59;5027174;28;20647;-85
2022/11/27 00:23:14;;;;;;;19.88;6.82;;;;;;;;;;5029189;28;20033;-85
2022/11/27 00:25:40;;;;;;;15.98;6.38;;;;;;;5.19;100.00;67347.41;5031511;28;20038;-85
2022/11/27 00:28:05;;;;;;;11.32;6.25;;;;;;;5.18;100.00;67351.56;5026736;28;20050;-87
2022/11/27 00:30:30;;;;;;;14.13;6.10;;;;;;;;;;5038035;28;20053;-86
2022/11/27 00:32:55;;;;;;;16.70;7.10;;;;;;;;;;5029642;28;20057;-87
2022/11/27 00:35:21;;;;;;;15.20;6.60;;;;;;;;;;5028900;28;20456;-85
2022/11/27 00:37:46;;;;;;;21.55;7.30;;;;;;;5.07;100.00;67339.16;5028905;28;20401;-87
2022/11/27 00:40:11;;;;;;;19.52;6.72;;;;;;;;;;5033870;28;20603;-84
2022/11/27 00:42:37;;;;;;;19.08;7.45;;;;;;;5.09;100.00;67340.84;5029236;28;20041;-85
2022/11/27 00:45:02;;;;;;;14.68;6.32;;;;;;;;;;5031161;28;20120;-88
2022/11/27 00:47:28;;;;;;;13.85;5.78;;;;;;;5.03;100.00;67334.63;5030417;28;20486;-84
2022/11/27 00:49:53;;;;;;;12.05;6.72;;;;;;;;;;5027071;28;20045;-85
2022/11/27 00:52:18;;;;;;;14.80;7.20;;;;;;;;;;5023191;28;20049;-84
2022/11/27 00:54:44;;;;;;;20.00;7.30;;;;;;;4.97;100.00;67328.41;5030448;28;20060;-84
2022/11/27 00:57:09;;;;;;;15.98;6.95;;;;;;;4.97;100.00;67327.84;5027254;28;20038;-85
2022/11/27 00:59:34;;;;;;;13.75;6.65;;;;;;;;;;5027436;28;20069;-88
2022/11/27 01:02:00;;;;;;;16.63;7.28;;;;;;;4.93;100.00;67323.91;5031777;28;20064;-83
2022/11/27 01:04:25;;;;;;;15.77;6.72;;;;;;;4.95;100.00;67320.88;5026214;28;20045;-83
2022/11/27 01:06:50;;;;;;;16.63;5.90;;;;;;;4.95;100.00;67320.88;5032963;28;20041;-84
2022/11/27 01:09:16;;;;;;;13.75;6.53;;;;;;;4.92;100.00;67322.19;5032590;28;20452;-88
2022/11/27 01:11:42;;;;;;;15.95;5.88;;;;;;;;;;5035787;28;20118;-87
2022/11/27 01:14:10;;;;;;;14.50;6.43;;;;;;;;;;5034102;28;20083;-83
2022/11/27 01:16:36;;;;;;;16.35;6.18;;;;;;;;;;5031226;28;20109;-84
2022/11/27 01:19:03;;;;;;;13.75;5.97;;;;;;;4.96;100.00;67322.00;5034019;28;20034;-86
2022/11/27 01:21:31;;;;;;;13.35;6.05;;;;;;;4.93;100.00;67323.34;5028433;28;20545;-84
2022/11/27 01:23:57;;;;;;;16.00;6.45;;;;;;;4.92;100.00;67322.19;5039986;28;20067;-84
2022/11/27 01:26:22;;;;;;;17.20;6.60;;;;;;;4.92;100.00;67322.19;5034815;28;20033;-85
2022/11/27 01:28:51;;;;;;;12.98;6.28;;;;;;;4.90;100.00;67319.94;5039787;28;20064;-87
2022/11/27 01:31:19;;;;;;;18.17;5.85;;;;;;;4.86;100.00;67310.16;5036430;28;20041;-87
2022/11/27 01:33:45;;;;;;;12.53;5.53;;;;;;;4.82;100.00;67311.47;5036167;28;20045;-84
2022/11/27 01:36:13;;;;;;;11.98;6.07;;;;;;;4.80;100.00;67303.38;5037621;28;20048;-86
2022/11/27 01:38:39;;;;;;;11.10;5.72;;;;;;;4.79;100.00;67302.25;5040639;28;20095;-85
2022/11/27 01:41:20;;;;;;;9.43;4.70;;;;;;;4.78;100.00;67301.13;5046756;28;20040;-84
2022/11/27 01:43:51;;;;;;;17.05;6.07;;;;;;;4.77;100.00;67305.25;5041765;28;20037;-84
2022/11/27 01:46:26;;;;;;;16.70;6.25;;;;;;;;;;5025341;28;20034;-86
2022/11/27 01:49:18;;;;;;;13.82;5.53;;;;;;;4.72;100.00;67294.91;5034904;28;20045;-87
2022/11/27 01:51:46;;;;;;;17.52;6.15;;;;;;;;;;5014859;28;20096;-86
2022/11/27 01:54:12;;;;;;;13.15;6.47;;;;;;;;;;5026785;28;20133;-87
2022/11/27 01:56:39;;;;;;;13.95;5.82;;;;;;;;;;5025341;28;20522;-86
2022/11/27 01:59:05;;;;;;;11.65;4.85;;;;;;;4.63;100.00;67293.22;5025643;28;20045;-87
2022/11/27 02:01:30;;;;;;;13.10;6.05;;;;;;;4.62;100.00;67289.44;5023893;28;20576;-87
2022/11/27 02:03:59;;;;;;;16.08;6.10;;;;;;;4.60;100.00;67289.81;5024029;28;20533;-87
2022/11/27 02:06:24;;;;;;;12.20;5.72;;;;;;;4.57;100.00;67278.53;5025757;28;20117;-86
2022/11/27 02:08:51;;;;;;;12.43;5.88;;;;;;;4.54;100.00;67272.50;5027803;28;20156;-86
2022/11/27 02:11:44;;;;;;;20.13;6.22;;;;;;;4.50;100.00;67278.53;5028506;28;20088;-86
2022/11/27 02:14:17;;;;;;;16.20;4.93;;;;;;;;;;4998465;28;20041;-86
2022/11/27 02:16:56;;;;;;;12.35;6.00;;;;;;;;;;5023596;28;20037;-87
2022/11/27 02:19:28;;;;;;;13.52;5.68;;;;;;;;;;5003918;28;20124;-85
2022/11/27 02:22:02;;;;;;;17.98;5.97;;;;;;;4.45;100.00;67265.56;5024956;28;20045;-86
2022/11/27 02:24:45;;;;;;;16.33;5.57;;;;;;;4.46;100.00;67271.38;5022962;28;20500;-87
2022/11/27 02:27:20;;;;;;;15.68;5.55;;;;;;;;;;5018662;28;20053;-85
2022/11/27 02:29:47;;;;;;;12.27;4.63;;;;;;;;;;5026526;28;20068;-86
2022/11/27 02:32:36;;;;;;;12.63;5.70;;;;;;;4.35;100.00;67259.00;5023413;28;20041;-86
2022/11/27 02:35:11;;;;;;;17.73;5.75;;;;;;;4.34;100.00;67258.41;4986687;28;20052;-85
2022/11/27 02:37:50;;;;;;;13.52;5.97;;;;;;;4.31;100.00;67255.03;5038424;28;20048;-86
2022/11/27 02:40:26;;;;;;;15.35;5.28;;;;;;;4.27;100.00;67245.81;5044535;28;20037;-86
2022/11/27 02:43:07;;;;;;;15.10;5.57;;;;;;;4.23;100.00;67246.00;5027438;28;20041;-85
2022/11/27 02:45:38;;;;;;;18.88;5.57;;;;;;;4.19;100.00;67241.47;5021695;28;20053;-86
2022/11/27 02:48:05;;;;;;;19.55;6.30;;;;;;;4.18;100.00;67240.91;5023198;28;20132;-86
2022/11/27 02:50:33;;;;;;;11.50;4.93;;;;;;;4.17;100.00;67239.81;5025905;28;20404;-86
2022/11/27 02:53:04;;;;;;;13.00;5.33;;;;;;;4.14;100.00;67236.41;5023873;28;20044;-86
2022/11/27 02:55:33;;;;;;;13.55;5.18;;;;;;;4.13;100.00;67235.28;5019628;28;20080;-87
2022/11/27 02:58:00;;;;;;;16.05;5.97;;;;;;;4.13;100.00;67237.91;5042043;28;20041;-84
2022/11/27 03:00:28;;;;;;;14.57;5.38;;;;;;;4.13;100.00;67235.28;5037397;28;20048;-86
2022/11/27 03:02:56;;;;;;;14.13;5.82;;;;;;;;;;5030464;28;20703;-86
2022/11/27 03:05:24;;;;;;;11.60;5.57;;;;;;;4.12;100.00;67233.59;5018642;28;20037;-87
2022/11/27 03:08:19;;;;;;;14.17;6.03;;;;;;;4.10;100.00;67226.06;5030645;28;20045;-85
2022/11/27 03:11:01;;;;;;;11.38;5.65;;;;;;;4.07;100.00;67228.50;5017260;28;20604;-85
2022/11/27 03:13:28;;;;;;;12.70;5.63;;;;;;;4.05;100.00;67221.53;5026040;28;20033;-86
2022/11/27 03:16:29;;;;;;;16.98;5.78;;;;;;;4.02;100.00;67225.50;5031630;28;20098;-84
2022/11/27 03:19:31;;;;;;;15.98;5.93;;;;;;;4.04;100.00;67225.13;5017362;28;20042;-86
2022/11/27 03:22:00;;;;;;;13.98;5.72;;;;;;;;;;5017280;28;20068;-83
2022/11/27 03:24:28;;;;;;;15.40;4.85;;;;;;;4.01;100.00;67217.03;5020085;28;20045;-86
2022/11/27 03:26:54;;;;;;;17.75;6.57;;;;;;;4.00;100.00;67223.22;5006177;28;20038;-85
2022/11/27 03:29:24;;;;;;;13.23;4.93;;;;;;;4.00;100.00;67221.19;5020428;28;20049;-87
2022/11/27 03:31:49;;;;;;;14.27;5.72;;;;;;;;;;5027554;28;20041;-86
2022/11/27 03:34:15;;;;;;;12.25;4.85;;;;;;;4.03;100.00;67227.19;5018299;28;20102;-86
2022/11/27 03:36:40;;;;;;;16.00;6.22;;;;;;;4.00;100.00;67215.31;5020608;28;20082;-86
2022/11/27 03:39:06;;;;;;;13.90;5.13;;;;;;;3.99;100.00;67214.22;5012396;28;20039;-85
2022/11/27 03:41:49;;;;;;;13.57;5.18;;;;;;;;;;5019478;28;20037;-84
2022/11/27 03:44:52;;;;;;;15.73;5.82;;;;;;;3.96;100.00;67210.81;5005952;28;20045;-86
2022/11/27 03:47:30;;;;;;;11.63;5.30;;;;;;;3.96;100.00;67211.38;4994814;28;20064;-87
2022/11/27 03:49:58;;;;;;;9.13;4.88;;;;;;;;;;5019426;28;20085;-86
2022/11/27 03:52:33;;;;;;;11.10;5.67;;;;;;;3.92;100.00;67214.22;5011808;28;20061;-87
2022/11/27 03:55:26;;;;;;;14.68;5.40;;;;;;;3.90;100.00;67204.63;5003708;28;20571;-86
2022/11/27 03:57:51;;;;;;;15.68;5.30;;;;;;;;;;5004345;28;20132;-87
2022/11/27 04:00:17;;;;;;;12.50;5.20;;;;;;;3.91;100.00;67205.19;5007741;28;20501;-87
2022/11/27 04:02:46;;;;;;;17.52;6.35;;;;;;;;;;5022316;28;20121;-85
2022/11/27 04:05:13;;;;;;;11.32;5.18;;;;;;;3.94;100.00;67213.81;5021947;28;20311;-86
2022/11/27 04:07:38;;;;;;;9.70;4.65;;;;;;;3.95;100.00;67217.59;5028200;28;20042;-87
2022/11/27 04:10:04;;;;;;;14.60;6.70;;;;;;;;;;5044091;28;20053;-87
2022/11/27 04:12:30;;;;;;;12.23;5.22;;;;;;;3.99;100.00;67222.66;5032909;28;20096;-87
2022/11/27 04:14:55;;;;;;;13.20;5.55;;;;;;;3.99;100.00;67219.47;5052073;28;20037;-83
2022/11/27 04:17:20;;;;;;;11.30;6.07;;;;;;;4.02;100.00;67222.84;5045426;28;20077;-84
2022/11/27 04:19:46;;;;;;;12.40;4.88;;;;;;;;;;5051677;28;20089;-83
2022/11/27 04:22:11;;;;;;;16.55;5.28;;;;;;;4.02;100.00;67217.59;5067631;28;20216;-83
2022/11/27 04:24:36;;;;;;;12.25;4.50;;;;;;;;;;5053292;28;20045;-87
2022/11/27 04:27:02;;;;;;;14.02;5.50;;;;;;;4.06;100.00;67230.03;5052752;28;20041;-83
2022/11/27 04:29:27;;;;;;;12.15;5.28;;;;;;;4.06;100.00;67227.94;5052011;28;20033;-85
2022/11/27 04:31:52;;;;;;;10.82;4.93;;;;;;;4.06;100.00;67222.69;5050818;28;20030;-83
2022/11/27 04:34:18;;;;;;;9.55;5.10;;;;;;;4.06;100.00;67230.03;5052505;28;20049;-82
2022/11/27 04:36:45;;;;;;;11.48;4.43;;;;;;;4.07;100.00;67228.50;5053943;28;20041;-84
2022/11/27 04:39:12;;;;;;;14.70;5.65;;;;;;;4.05;100.00;67231.50;5051331;28;20042;-81
2022/11/27 04:41:37;;;;;;;11.82;4.57;;;;;;;;;;5043028;28;20369;-83
2022/11/27 04:44:03;;;;;;;9.60;4.55;;;;;;;4.07;100.00;67229.06;5058748;28;20113;-83
2022/11/27 04:46:28;;;;;;;11.93;5.43;;;;;;;4.05;100.00;67226.25;5052308;28;20224;-83
2022/11/27 04:48:53;;;;;;;10.52;4.82;;;;;;;;;;5053778;28;20033;-85
2022/11/27 04:51:19;;;;;;;12.25;4.32;;;;;;;;;;5046363;28;20049;-82
2022/11/27 04:53:44;;;;;;;11.98;4.68;;;;;;;;;;5037801;28;20436;-84
2022/11/27 04:56:09;;;;;;;12.32;5.93;;;;;;;4.08;100.00;67229.63;5046298;28;20071;-83
2022/11/27 04:58:34;;;;;;;10.65;5.30;;;;;;;4.06;100.00;67227.38;5046243;28;20040;-82
2022/11/27 05:01:00;;;;;;;11.18;5.43;;;;;;;4.04;100.00;67225.69;5053231;28;20080;-83
2022/11/27 05:03:25;;;;;;;11.52;4.85;;;;;;;4.05;100.00;67228.88;5053382;28;20041;-84
2022/11/27 05:05:57;;;;;;;9.38;4.63;;;;;;;4.05;100.00;67229.44;5051113;28;20042;-83
2022/11/27 05:08:23;;;;;;;11.25;5.72;;;;;;;;;;5050630;28;20026;-83
2022/11/27 05:11:02;;;;;;;13.40;5.40;;;;;;;4.03;100.00;67224.00;5055388;28;20076;-83
2022/11/27 05:13:27;;;;;;;12.20;6.00;;;;;;;;;;5053944;28;20076;-83
2022/11/27 05:15:53;;;;;;;11.88;5.78;;;;;;;4.02;100.00;67218.16;5049470;28;20049;-83
2022/11/27 05:18:18;;;;;;;9.35;4.80;;;;;;;4.01;100.00;67224.38;5058474;28;20125;-83
2022/11/27 05:20:43;;;;;;;10.75;5.70;;;;;;;;;;5058727;28;20033;-82
2022/11/27 05:23:09;;;;;;;10.95;5.32;;;;;;;4.03;100.00;67226.63;5042602;28;20045;-86
2022/11/27 05:25:34;;;;;;;10.27;5.38;;;;;;;4.02;100.00;67222.84;5030076;28;20049;-86
2022/11/27 05:27:59;;;;;;;12.75;5.88;;;;;;;4.02;100.00;67223.41;5028427;28;20508;-86
2022/11/27 05:30:25;;;;;;;8.02;4.80;;;;;;;4.06;100.00;67227.38;5028937;28;20042;-86
2022/11/27 05:32:50;;;;;;;10.20;4.88;;;;;;;4.06;100.00;67227.38;5028961;28;20435;-86
2022/11/27 05:35:15;;;;;;;12.75;6.45;;;;;;;4.07;100.00;67228.50;5047922;28;20041;-86
2022/11/27 05:37:41;;;;;;;10.95;4.80;;;;;;;4.06;100.00;67222.13;5035061;28;20570;-87
2022/11/27 05:40:07;;;;;;;13.05;5.90;;;;;;;4.09;100.00;67230.22;5026217;28;20056;-86
2022/11/27 05:42:32;;;;;;;10.95;5.50;;;;;;;4.10;100.00;67231.31;5038798;28;20373;-86
2022/11/27 05:44:57;;;;;;;11.00;5.70;;;;;;;4.13;100.00;67234.72;5027532;28;20415;-87
2022/11/27 05:47:23;;;;;;;10.48;5.43;;;;;;;;;;5028292;28;20572;-84
2022/11/27 05:49:48;;;;;;;12.43;5.50;;;;;;;;;;5022098;28;20045;-86
2022/11/27 05:52:13;;;;;;;10.10;5.40;;;;;;;4.15;100.00;67237.53;5039119;28;20041;-86
2022/11/27 05:54:39;;;;;;;11.18;5.38;;;;;;;4.16;100.00;67238.66;5012787;28;20398;-86
2022/11/27 05:57:04;;;;;;;13.57;6.40;;;;;;;4.15;100.00;67237.53;5015815;28;20136;-87
2022/11/27 05:59:29;;;;;;;10.90;5.22;;;;;;;;;;5007530;28;20046;-84
2022/11/27 06:01:54;;;;;;;10.65;4.88;;;;;;;4.21;100.00;67239.03;5022655;28;20140;-85
2022/11/27 06:04:20;;;;;;;12.43;5.40;;;;;;;;;;5026302;28;20048;-86
2022/11/27 06:06:45;;;;;;;12.95;5.10;;;;;;;;;;5007252;28;20685;-86
2022/11/27 06:09:10;;;;;;;11.57;5.68;;;;;;;4.28;100.00;67252.19;5018147;28;20189;-86
2022/11/27 06:11:36;;;;;;;9.45;5.63;;;;;;;;;;5027740;28;20443;-86
2022/11/27 06:14:01;;;;;;;9.88;4.90;;;;;;;;;;5020452;28;20095;-86
2022/11/27 06:16:26;;;;;;;11.13;5.50;;;;;;;;;;5019394;28;20046;-86
2022/11/27 06:18:53;;;;;;;11.68;6.03;;;;;;;4.32;100.00;67255.59;5031386;28;20064;-87
2022/11/27 06:21:19;;;;;;;12.60;4.90;;;;;;;;;;5035558;28;20042;-86
2022/11/27 06:23:44;;;;;;;10.88;5.28;;;;;;;4.35;100.00;67254.28;5028111;28;20045;-85
2022/11/27 06:26:11;;;;;;;14.60;6.07;;;;;;;4.36;100.00;67254.84;5024024;28;20513;-86
2022/11/27 06:28:37;;;;;;;12.23;6.30;;;;;;;4.37;100.00;67261.78;5024147;28;20042;-85
2022/11/27 06:31:07;;;;;;;11.73;5.82;;;;;;;4.40;100.00;67264.63;5018289;28;20055;-86
2022/11/27 06:33:33;;;;;;;11.38;5.45;;;;;;;4.40;100.00;67259.94;5026007;28;20413;-85
2022/11/27 06:35:58;;;;;;;12.25;6.43;;;;;;;;;;5008745;28;20042;-87
2022/11/27 06:38:23;;;;;;;13.00;5.82;;;;;;;4.39;100.00;67266.13;5033457;28;20059;-86
2022/11/27 06:40:49;;;;;;;12.27;5.68;;;;;;;4.38;100.00;67257.09;5021914;28;20042;-87
2022/11/27 06:43:14;;;;;;;12.85;5.97;;;;;;;4.41;100.00;67261.03;5012106;28;20040;-85
2022/11/27 06:45:39;;;;;;;13.55;5.40;;;;;;;4.41;100.00;67260.47;5017321;28;20038;-85
2022/11/27 06:48:05;;;;;;;10.65;6.03;;;;;;;4.41;100.00;67258.41;5014950;28;20506;-86
2022/11/27 06:50:30;;;;;;;12.23;6.20;;;;;;;4.38;100.00;67257.66;5033970;28;20049;-86
2022/11/27 06:52:55;;;;;;;12.70;6.10;;;;;;;4.42;100.00;67267.44;5013431;28;20054;-86
2022/11/27 06:55:21;;;;;;;10.00;5.00;;;;;;;;;;5029382;28;20511;-86
2022/11/27 06:57:48;;;;;;;10.90;5.30;;;;;;;;;;5028373;28;20087;-86
2022/11/27 07:00:14;;;;;;;9.98;6.00;;;;;;;4.44;100.00;67269.69;5017570;28;20072;-86
2022/11/27 07:02:39;;;;;;;13.90;5.82;;;;;;;4.49;100.00;67274.78;5022245;28;20088;-87
2022/11/27 07:05:04;;;;;;;10.82;5.88;;;;;;;;;;5030197;28;20052;-86
2022/11/27 07:07:30;;;;;;;10.98;5.20;;;;;;;4.52;100.00;67280.81;5019965;28;20551;-86
2022/11/27 07:09:56;;;;;;;14.18;6.32;;;;;;;4.53;100.00;67274.03;5033433;28;20186;-87
2022/11/27 07:12:21;;;;;;;15.32;5.85;;;;;;;;;;5026973;28;20501;-86
2022/11/27 07:14:47;;;;;;;11.60;5.38;;;;;;;4.56;100.00;67282.69;5024712;28;20067;-85
2022/11/27 07:17:12;;;;;;;12.93;6.45;;;;;;;4.57;100.00;67283.81;5025271;28;20057;-87
2022/11/27 07:19:37;;;;;;;11.80;5.13;;;;;;;;;;5029088;28;20069;-86
2022/11/27 07:22:03;;;;;;;13.57;6.68;;;;;;;4.62;100.00;67284.19;5029332;28;20095;-86
2022/11/27 07:24:28;;;;;;;13.68;6.03;;;;;;;4.63;100.00;67284.75;5025498;28;20609;-87
2022/11/27 07:26:53;;;;;;;12.85;6.47;;;;;;;;;;5026672;28;20539;-86
2022/11/27 07:29:18;;;;;;;14.35;6.63;;;;;;;;;;5024603;28;20045;-86
2022/11/27 07:31:44;;;;;;;10.80;5.43;;;;;;;4.71;100.00;67293.78;5008634;28;20045;-86
2022/11/27 07:34:09;;;;;;;14.32;7.10;;;;;;;4.70;100.00;67293.22;4996073;28;20058;-88
2022/11/27 07:36:35;;;;;;;11.32;5.13;;;;;;;4.72;100.00;67295.47;5009409;28;20034;-87
2022/11/27 07:39:00;;;;;;;11.43;5.32;;;;;;;4.74;100.00;67305.63;5012378;28;20053;-87
2022/11/27 07:41:25;;;;;;;12.30;5.65;;;;;;;4.78;100.00;67306.41;5015643;28;20045;-88
2022/11/27 07:43:51;;;;;;;13.13;5.80;;;;;;;4.81;100.00;67309.78;5002531;28;20053;-84
2022/11/27 07:46:20;;;;;;;12.20;6.20;;;;;;;4.82;100.00;67311.47;4981813;28;20181;-86
2022/11/27 07:48:45;;;;;;;;;;;;;;;4.85;100.00;67314.31;4983606;28;20034;-87
2022/11/27 07:51:13;;;;;;;14.75;6.40;;;;;;;4.77;100.00;67308.47;4995815;28;19973;-87
2022/11/27 07:53:39;;;;;;;13.70;7.18;;;;;;;;;;4996423;28;20081;-86
2022/11/27 07:56:06;;;;;;;15.02;6.43;;;;;;;4.86;100.00;67310.72;5004268;28;20048;-86
2022/11/27 07:58:32;;;;;;;12.13;6.40;;;;;;;4.90;100.00;67319.94;5015950;28;20050;-87
2022/11/27 08:00:57;;;;;;;12.00;6.22;;;;;;;4.95;100.00;67315.06;5028318;28;20413;-86
2022/11/27 08:03:23;;;;;;;12.55;6.47;;;;;;;;;;5031345;28;20037;-87
2022/11/27 08:05:48;;;;;;;17.92;7.25;;;;;;;;;;5025170;28;20058;-86
2022/11/27 08:08:13;;;;;;;12.82;6.03;;;;;;;4.97;100.00;67323.13;5030579;28;20048;-86
2022/11/27 08:10:39;;;;;;;15.25;7.18;;;;;;;5.00;100.00;67333.31;5045306;28;20061;-84
2022/11/27 08:13:06;;;;;;;10.82;5.50;;;;;;;5.05;100.00;67331.06;5012907;28;20397;-84
2022/11/27 08:15:32;;;;;;;11.57;5.18;;;;;;;;;;5025596;28;20077;-84
2022/11/27 08:17:57;;;;;;;11.60;6.60;;;;;;;5.09;100.00;67341.41;5023900;28;20080;-84
2022/11/27 08:20:22;;;;;;;11.52;5.65;;;;;;;;;;5010450;28;20468;-86
2022/11/27 08:22:48;;;;;;;11.93;6.60;;;;;;;5.16;100.00;67344.03;5034576;28;20067;-84
2022/11/27 08:25:13;;;;;;;13.88;6.63;;;;;;;;;;5027539;28;20057;-84
2022/11/27 08:27:39;;;;;;;12.13;6.38;;;;;;;5.23;100.00;67358.72;5029711;28;20049;-86
2022/11/27 08:30:05;;;;;;;12.05;6.13;;;;;;;5.25;100.00;67353.06;5027985;28;20090;-84
2022/11/27 08:32:30;;;;;;;12.57;6.57;;;;;;;;;;5027663;28;20054;-85
2022/11/27 08:34:57;;;;;;;12.77;6.32;;;;;;;5.30;100.00;67364.00;5028096;28;20061;-85
2022/11/27 08:37:22;;;;;;;12.13;6.35;;;;;;;5.33;100.00;67367.41;5029123;28;20187;-85
2022/11/27 08:39:47;;;;;;;14.32;6.85;;;;;;;5.36;100.00;67370.78;5042956;28;20544;-85
2022/11/27 08:42:13;;;;;;;12.13;5.97;;;;;;;5.38;100.00;67368.34;5013432;28;20038;-85
2022/11/27 08:44:38;;;;;;;11.98;5.38;;;;;;;;;;5014788;28;20128;-85
2022/11/27 08:47:03;;;;;;;14.13;6.72;;;;;;;;;;5026980;28;20044;-85
2022/11/27 08:49:29;;;;;;;13.02;6.60;;;;;;;;;;5028674;28;20047;-84
2022/11/27 08:51:54;;;;;;;12.30;6.05;;;;;;;;;;5026047;28;20045;-84
2022/11/27 08:54:19;;;;;;;11.77;5.95;;;;;;;5.41;100.00;67379.06;5028051;28;20052;-86
2022/11/27 08:56:44;;;;;;;12.50;6.18;;;;;;;5.41;100.00;67377.00;5027494;28;20390;-84
2022/11/27 08:59:10;;;;;;;12.80;6.45;;;;;;;5.39;100.00;67374.72;5021413;28;21029;-86
2022/11/27 09:01:36;;;;;;;13.02;5.60;;;;;;;;;;5027176;28;20084;-85
2022/11/27 09:04:02;;;;;;;11.82;6.30;;;;;;;5.41;100.00;67371.16;5028205;28;20042;-86
2022/11/27 09:06:28;;;;;;;11.13;5.63;;;;;;;;;;5019109;28;20156;-86
2022/11/27 09:08:58;;;;;;;12.93;5.97;;;;;;;5.40;100.00;67375.28;5022653;28;20072;-85
2022/11/27 09:11:25;;;;;;;11.63;6.88;;;;;;;5.41;100.00;67376.44;5025800;28;20442;-86
2022/11/27 09:13:51;;;;;;;10.50;5.47;;;;;;;;;;5022054;28;20442;-85
2022/11/27 09:16:18;;;;;;;12.57;6.25;;;;;;;5.43;100.00;67373.41;5026377;28;20069;-85
2022/11/27 09:18:44;;;;;;;11.95;6.22;;;;;;;5.43;100.00;67373.41;5012312;28;20030;-84
2022/11/27 09:21:11;;;;;;;13.82;9.20;;;;;;;;;;5013814;28;20034;-84
2022/11/27 09:23:37;;;;;;;11.30;6.63;;;;;;;5.48;100.00;67384.34;5027160;28;20041;-86
2022/11/27 09:26:05;;;;;;;14.63;6.82;;;;;;;5.48;100.00;67376.41;5027677;28;20408;-86
2022/11/27 09:29:46;;;;;;;14.27;7.20;;;;;;;5.51;100.00;67381.88;5027406;28;20554;-86
2022/11/27 09:32:02;;;;;;;10.38;5.35;;;;;;;5.51;100.00;67382.44;5002210;28;20276;-86
2022/11/27 09:34:28;;;;;;;10.75;7.43;;;;;;;5.54;100.00;67385.28;5023551;28;20514;-85
2022/11/27 09:36:53;;;;;;;13.93;7.13;;;;;;;;;;5021858;28;20041;-86
2022/11/27 09:39:19;;;;;;;11.23;6.22;;;;;;;;;;5022068;28;20378;-86
2022/11/27 09:41:48;;;;;;;12.82;6.80;;;;;;;;;;5017073;28;20045;-86
2022/11/27 09:44:37;;;;;;;13.25;6.63;;;;;;;5.65;100.00;67405.63;5025637;28;20049;-84
2022/11/27 09:47:03;;;;;;;;;;;;;;;;;;5014402;28;20505;-85
2022/11/27 09:49:35;;;;;;;13.40;6.57;;;;;;;5.59;100.00;67396.75;5018544;28;20368;-86
2022/11/27 09:52:00;;;;;;;13.77;7.10;;;;;;;;;;5027696;28;20072;-86
2022/11/27 09:54:36;;;;;;;11.68;6.22;;;;;;;;;;5019010;28;20073;-85
2022/11/27 09:57:02;;;;;;;12.98;6.78;;;;;;;;;;5021878;28;20091;-85
2022/11/27 09:59:32;;;;;;;14.60;6.38;;;;;;;;;;5027979;28;20041;-85
2022/11/27 10:01:57;;;;;;;13.20;6.95;;;;;;;5.76;100.00;67414.84;5025142;28;20504;-85
2022/11/27 10:04:23;;;;;;;13.98;7.40;;;;;;;;;;5010895;28;20076;-86
2022/11/27 10:07:05;;;;;;;14.60;6.55;;;;;;;5.79;100.00;67418.25;5044838;28;20054;-86
2022/11/27 10:10:04;;;;;;;12.80;7.15;;;;;;;5.76;100.00;67410.13;5015517;28;20417;-85
2022/11/27 10:12:47;;;;;;;17.00;7.68;;;;;;;5.78;100.00;67411.81;5007784;28;20447;-85
2022/11/27 10:15:29;;;;;;;12.90;7.45;;;;;;;5.80;100.00;67414.09;5018798;28;20045;-85
2022/11/27 10:17:59;;;;;;;10.63;6.75;;;;;;;;;;5023740;28;20485;-84
2022/11/27 10:20:34;;;;;;;13.52;7.70;;;;;;;5.82;100.00;67421.63;5023263;28;20055;-86
2022/11/27 10:23:14;;;;;;;10.60;6.72;;;;;;;5.85;100.00;67425.59;5022914;28;20045;-84
2022/11/27 10:25:46;;;;;;;10.07;7.30;;;;;;;5.84;100.00;67423.88;5010023;28;20093;-86
2022/11/27 10:28:18;;;;;;;18.80;7.80;;;;;;;;;;5027585;28;20120;-86
2022/11/27 10:30:56;;;;;;;15.63;8.30;;;;;;;5.83;100.00;67423.31;5028921;28;20045;-85
2022/11/27 10:33:30;;;;;;;14.10;7.47;;;;;;;5.82;100.00;67416.91;5019670;28;20037;-85
2022/11/27 10:35:57;;;;;;;15.60;7.88;;;;;;;5.82;100.00;67416.34;5021180;28;20288;-85
2022/11/27 10:38:26;;;;;;;14.48;7.95;;;;;;;5.84;100.00;67423.88;5025728;28;20041;-85
2022/11/27 10:41:14;;;;;;;12.38;7.72;;;;;;;;;;5032374;28;20068;-84
2022/11/27 10:43:40;;;;;;;14.88;8.93;;;;;;;5.84;100.00;67418.59;5011504;28;20041;-83
2022/11/27 10:46:26;;;;;;;18.80;8.60;;;;;;;5.83;100.00;67422.75;5017503;28;20052;-86
2022/11/27 10:48:51;;;;;;;16.40;8.57;;;;;;;;;;5021626;28;20092;-86
2022/11/27 10:51:21;;;;;;;16.65;9.48;;;;;;;5.81;100.00;67415.78;5031518;28;20042;-85
2022/11/27 10:53:51;;;;;;;13.88;8.60;;;;;;;5.82;100.00;67416.34;5019545;28;20124;-86
2022/11/27 10:56:41;;;;;;;16.85;9.05;;;;;;;5.83;100.00;67422.75;5027989;28;20033;-85
2022/11/27 10:59:17;;;;;;;14.48;9.75;;;;;;;5.82;100.00;67416.91;5018648;28;20156;-83
2022/11/27 11:01:44;;;;;;;16.25;9.70;;;;;;;;;;5012978;28;20037;-84
2022/11/27 11:04:11;;;;;;;13.27;8.80;;;;;;;5.83;100.00;67422.75;5022092;28;20048;-85
2022/11/27 11:06:41;;;;;;;14.55;8.65;;;;;;;5.85;100.00;67419.75;5016802;28;20095;-84
2022/11/27 11:09:30;;;;;;;16.98;8.73;;;;;;;5.86;100.00;67429.34;5012258;28;20038;-85
2022/11/27 11:12:28;;;;;;;14.07;8.10;;;;;;;5.85;100.00;67419.75;5019685;28;20488;-86
2022/11/27 11:14:55;;;;;;;15.25;9.15;;;;;;;5.86;100.00;67421.41;4993041;28;20048;-85
2022/11/27 11:17:23;;;;;;;16.38;9.52;;;;;;;;;;5025307;28;20037;-84
2022/11/27 11:19:48;;;;;;;12.48;8.07;;;;;;;;;;5019083;28;20105;-85
2022/11/27 11:22:20;;;;;;;14.15;8.50;;;;;;;5.93;100.00;67428.19;5025801;28;20144;-86
2022/11/27 11:24:51;;;;;;;15.88;8.70;;;;;;;5.94;100.00;67426.72;5013815;28;20045;-86
2022/11/27 11:27:22;;;;;;;17.50;10.13;;;;;;;5.93;100.00;67428.19;5012981;28;20116;-87
2022/11/27 11:29:53;;;;;;;19.20;10.57;;;;;;;5.94;100.00;67429.94;5018489;28;20436;-87
2022/11/27 11:32:19;;;;;;;20.30;10.55;;;;;;;;;;5022189;28;20038;-87
2022/11/27 11:34:50;;;;;;;16.38;10.77;;;;;;;5.95;100.00;67428.41;5016861;28;20104;-86
2022/11/27 11:37:30;;;;;;;18.67;10.63;;;;;;;5.95;100.00;67431.06;5036336;28;20040;-87
2022/11/27 11:40:00;;;;;;;18.42;10.65;;;;;;;5.97;100.00;67438.03;5026408;28;20033;-86
2022/11/27 11:42:57;;;;;;;19.08;11.35;;;;;;;;;;5040977;28;20041;-87
2022/11/27 11:45:33;;;;;;;19.50;10.38;;;;;;;;;;5025057;28;20049;-86
2022/11/27 11:48:00;;;;;;;20.80;11.60;;;;;;;;;;5022692;28;20076;-86
2022/11/27 11:50:44;;;;;;;16.70;10.45;;;;;;;;;;5033595;28;20136;-87
2022/11/27 11:53:41;;;;;;;19.70;11.70;;;;;;;6.00;100.00;67436.72;4996053;28;20097;-86
2022/11/27 11:56:25;;;;;;;17.85;11.13;;;;;;;6.00;100.00;67436.72;5027821;28;20064;-87
2022/11/27 11:58:53;;;;;;;19.23;11.32;;;;;;;6.00;100.00;67442.00;5019190;28;20312;-86
2022/11/27 12:01:30;;;;;;;16.58;11.43;;;;;;;6.02;100.00;67438.97;5020036;28;20603;-87
2022/11/27 12:04:37;;;;;;;19.30;11.82;;;;;;;6.04;100.00;67446.53;5031036;28;20041;-87
2022/11/27 12:07:18;;;;;;;22.08;11.68;;;;;;;;;;5028691;28;20056;-86
2022/11/27 12:09:55;;;;;;;20.58;13.13;;;;;;;6.06;100.00;67443.50;5043485;28;20037;-88
2022/11/27 12:12:47;;;;;;;21.42;12.90;;;;;;;6.08;100.00;67445.75;5046706;28;20304;-88
2022/11/27 12:15:29;;;;;;;18.27;12.35;;;;;;;;;;5032214;28;20132;-87
2022/11/27 12:18:14;;;;;;;19.42;12.48;;;;;;;6.10;100.00;67447.47;5022727;28;20045;-86
2022/11/27 12:20:39;;;;;;;19.30;11.98;;;;;;;;;;5034052;28;20050;-87
2022/11/27 12:23:14;;;;;;;20.60;12.02;;;;;;;6.16;100.00;67454.25;5042375;28;20248;-86
2022/11/27 12:25:54;;;;;;;20.98;11.93;;;;;;;;;;5028829;28;20041;-87
2022/11/27 12:28:33;;;;;;;15.15;9.30;;;;;;;;;;5033857;28;20053;-87